sensor_id;sensor_type;location;lat;lon;timestamp;P1;durP1;ratioP1;P2;durP2;ratioP2
45434;SDS011;31183;47.404;8.500;2023-05-07T00:01:13;2.58;;;2.25;;
45434;SDS011;31183;47.404;8.500;2023-05-07T00:03:40;3.63;;;1.90;;
45434;SDS011;31183;47.404;8.500;2023-05-07T00:06:08;4.22;;;2.00;;
45434;SDS011;31183;47.404;8.500;2023-05-07T00:08:34;5.60;;;2.45;;
45434;SDS011;31183;47.404;8.500;2023-05-07T00:11:01;2.47;;;2.13;;
45434;SDS011;31183;47.404;8.500;2023-05-07T00:13:28;4.93;;;2.38;;
45434;SDS011;31183;47.404;8.500;2023-05-07T00:15:56;3.80;;;2.10;;
45434;SDS011;31183;47.404;8.500;2023-05-07T00:18:23;4.78;;;2.10;;
45434;SDS011;31183;47.404;8.500;2023-05-07T00:20:50;3.70;;;2.00;;
45434;SDS011;31183;47.404;8.500;2023-05-07T00:23:17;2.42;;;2.10;;
45434;SDS011;31183;47.404;8.500;2023-05-07T00:25:43;3.15;;;2.45;;
45434;SDS011;31183;47.404;8.500;2023-05-07T00:28:10;5.22;;;2.60;;
45434;SDS011;31183;47.404;8.500;2023-05-07T00:30:36;3.17;;;2.13;;
45434;SDS011;31183;47.404;8.500;2023-05-07T00:33:03;2.67;;;1.83;;
45434;SDS011;31183;47.404;8.500;2023-05-07T00:35:30;5.32;;;2.30;;
45434;SDS011;31183;47.404;8.500;2023-05-07T00:37:57;4.35;;;2.47;;
45434;SDS011;31183;47.404;8.500;2023-05-07T00:40:24;2.47;;;2.05;;
45434;SDS011;31183;47.404;8.500;2023-05-07T00:42:50;2.47;;;2.22;;
45434;SDS011;31183;47.404;8.500;2023-05-07T00:45:22;2.85;;;2.22;;
45434;SDS011;31183;47.404;8.500;2023-05-07T00:47:57;3.42;;;2.25;;
45434;SDS011;31183;47.404;8.500;2023-05-07T00:50:26;3.88;;;2.03;;
45434;SDS011;31183;47.404;8.500;2023-05-07T00:52:53;6.07;;;2.40;;
45434;SDS011;31183;47.404;8.500;2023-05-07T00:55:21;2.35;;;1.90;;
45434;SDS011;31183;47.404;8.500;2023-05-07T00:57:49;3.70;;;2.00;;
45434;SDS011;31183;47.404;8.500;2023-05-07T01:00:17;2.50;;;2.30;;
45434;SDS011;31183;47.404;8.500;2023-05-07T01:02:43;4.05;;;2.30;;
45434;SDS011;31183;47.404;8.500;2023-05-07T01:05:11;3.20;;;2.08;;
45434;SDS011;31183;47.404;8.500;2023-05-07T01:07:40;4.10;;;2.40;;
45434;SDS011;31183;47.404;8.500;2023-05-07T01:10:08;3.20;;;2.30;;
45434;SDS011;31183;47.404;8.500;2023-05-07T01:12:36;3.63;;;2.20;;
45434;SDS011;31183;47.404;8.500;2023-05-07T01:15:05;3.55;;;2.10;;
45434;SDS011;31183;47.404;8.500;2023-05-07T01:17:38;3.20;;;2.50;;
45434;SDS011;31183;47.404;8.500;2023-05-07T01:20:06;2.15;;;1.95;;
45434;SDS011;31183;47.404;8.500;2023-05-07T01:22:34;4.22;;;2.33;;
45434;SDS011;31183;47.404;8.500;2023-05-07T01:25:06;4.70;;;2.30;;
45434;SDS011;31183;47.404;8.500;2023-05-07T01:27:34;6.13;;;2.17;;
45434;SDS011;31183;47.404;8.500;2023-05-07T01:30:03;3.35;;;2.33;;
45434;SDS011;31183;47.404;8.500;2023-05-07T01:34:57;4.20;;;2.20;;
45434;SDS011;31183;47.404;8.500;2023-05-07T01:37:25;4.72;;;2.15;;
45434;SDS011;31183;47.404;8.500;2023-05-07T01:39:52;3.95;;;1.92;;
45434;SDS011;31183;47.404;8.500;2023-05-07T01:42:20;2.35;;;2.15;;
45434;SDS011;31183;47.404;8.500;2023-05-07T01:44:47;4.38;;;2.67;;
45434;SDS011;31183;47.404;8.500;2023-05-07T01:47:14;4.13;;;2.33;;
45434;SDS011;31183;47.404;8.500;2023-05-07T01:49:42;4.07;;;2.67;;
45434;SDS011;31183;47.404;8.500;2023-05-07T01:52:10;3.20;;;2.90;;
45434;SDS011;31183;47.404;8.500;2023-05-07T01:54:37;4.38;;;2.70;;
45434;SDS011;31183;47.404;8.500;2023-05-07T01:57:04;5.00;;;3.05;;
45434;SDS011;31183;47.404;8.500;2023-05-07T01:59:31;5.85;;;2.90;;
45434;SDS011;31183;47.404;8.500;2023-05-07T02:01:57;5.45;;;2.50;;
45434;SDS011;31183;47.404;8.500;2023-05-07T02:04:24;5.30;;;2.75;;
45434;SDS011;31183;47.404;8.500;2023-05-07T02:06:51;3.10;;;2.80;;
45434;SDS011;31183;47.404;8.500;2023-05-07T02:09:18;3.40;;;2.60;;
45434;SDS011;31183;47.404;8.500;2023-05-07T02:11:45;5.47;;;2.60;;
45434;SDS011;31183;47.404;8.500;2023-05-07T02:14:12;7.57;;;3.03;;
45434;SDS011;31183;47.404;8.500;2023-05-07T02:16:39;3.88;;;3.15;;
45434;SDS011;31183;47.404;8.500;2023-05-07T02:19:05;5.05;;;2.92;;
45434;SDS011;31183;47.404;8.500;2023-05-07T02:21:32;3.75;;;3.28;;
45434;SDS011;31183;47.404;8.500;2023-05-07T02:23:58;3.13;;;2.83;;
45434;SDS011;31183;47.404;8.500;2023-05-07T02:26:25;5.72;;;3.40;;
45434;SDS011;31183;47.404;8.500;2023-05-07T02:28:51;4.43;;;3.53;;
45434;SDS011;31183;47.404;8.500;2023-05-07T02:31:19;4.72;;;3.75;;
45434;SDS011;31183;47.404;8.500;2023-05-07T02:33:46;5.22;;;3.63;;
45434;SDS011;31183;47.404;8.500;2023-05-07T02:36:12;4.03;;;3.35;;
45434;SDS011;31183;47.404;8.500;2023-05-07T02:38:39;5.70;;;4.40;;
45434;SDS011;31183;47.404;8.500;2023-05-07T02:41:06;5.28;;;3.70;;
45434;SDS011;31183;47.404;8.500;2023-05-07T02:43:32;4.68;;;4.25;;
45434;SDS011;31183;47.404;8.500;2023-05-07T02:46:05;7.93;;;4.25;;
45434;SDS011;31183;47.404;8.500;2023-05-07T02:48:33;4.03;;;3.65;;
45434;SDS011;31183;47.404;8.500;2023-05-07T02:51:00;4.13;;;3.63;;
45434;SDS011;31183;47.404;8.500;2023-05-07T02:53:28;4.28;;;3.35;;
45434;SDS011;31183;47.404;8.500;2023-05-07T02:55:55;4.43;;;3.22;;
45434;SDS011;31183;47.404;8.500;2023-05-07T02:58:23;3.90;;;3.60;;
45434;SDS011;31183;47.404;8.500;2023-05-07T03:00:50;3.45;;;3.10;;
45434;SDS011;31183;47.404;8.500;2023-05-07T03:03:17;3.83;;;3.53;;
45434;SDS011;31183;47.404;8.500;2023-05-07T03:05:44;6.32;;;3.30;;
45434;SDS011;31183;47.404;8.500;2023-05-07T03:08:10;4.53;;;3.80;;
45434;SDS011;31183;47.404;8.500;2023-05-07T03:10:37;8.13;;;5.65;;
45434;SDS011;31183;47.404;8.500;2023-05-07T03:13:04;6.45;;;5.03;;
45434;SDS011;31183;47.404;8.500;2023-05-07T03:15:31;11.13;;;9.52;;
45434;SDS011;31183;47.404;8.500;2023-05-07T03:17:57;10.73;;;9.63;;
45434;SDS011;31183;47.404;8.500;2023-05-07T03:20:24;9.50;;;8.13;;
45434;SDS011;31183;47.404;8.500;2023-05-07T03:22:50;7.47;;;6.32;;
45434;SDS011;31183;47.404;8.500;2023-05-07T03:25:17;6.78;;;6.13;;
45434;SDS011;31183;47.404;8.500;2023-05-07T03:27:44;7.10;;;5.57;;
45434;SDS011;31183;47.404;8.500;2023-05-07T03:30:11;6.75;;;5.57;;
45434;SDS011;31183;47.404;8.500;2023-05-07T03:32:38;6.25;;;5.32;;
45434;SDS011;31183;47.404;8.500;2023-05-07T03:35:05;8.50;;;5.63;;
45434;SDS011;31183;47.404;8.500;2023-05-07T03:37:32;6.65;;;4.90;;
45434;SDS011;31183;47.404;8.500;2023-05-07T03:39:58;5.28;;;4.55;;
45434;SDS011;31183;47.404;8.500;2023-05-07T03:42:25;9.43;;;5.90;;
45434;SDS011;31183;47.404;8.500;2023-05-07T03:44:52;6.85;;;4.78;;
45434;SDS011;31183;47.404;8.500;2023-05-07T03:47:18;7.63;;;4.53;;
45434;SDS011;31183;47.404;8.500;2023-05-07T03:49:45;4.78;;;4.28;;
45434;SDS011;31183;47.404;8.500;2023-05-07T03:52:12;6.45;;;4.25;;
45434;SDS011;31183;47.404;8.500;2023-05-07T03:54:38;5.15;;;3.63;;
45434;SDS011;31183;47.404;8.500;2023-05-07T03:57:05;5.90;;;3.60;;
45434;SDS011;31183;47.404;8.500;2023-05-07T03:59:32;4.13;;;3.72;;
45434;SDS011;31183;47.404;8.500;2023-05-07T04:01:58;7.20;;;4.53;;
45434;SDS011;31183;47.404;8.500;2023-05-07T04:04:28;5.07;;;4.38;;
45434;SDS011;31183;47.404;8.500;2023-05-07T04:06:58;6.47;;;4.83;;
45434;SDS011;31183;47.404;8.500;2023-05-07T04:09:26;6.38;;;5.32;;
45434;SDS011;31183;47.404;8.500;2023-05-07T04:11:53;5.65;;;4.78;;
45434;SDS011;31183;47.404;8.500;2023-05-07T04:14:19;4.82;;;4.40;;
45434;SDS011;31183;47.404;8.500;2023-05-07T04:16:46;6.15;;;3.90;;
45434;SDS011;31183;47.404;8.500;2023-05-07T04:19:12;4.60;;;4.20;;
45434;SDS011;31183;47.404;8.500;2023-05-07T04:21:39;5.32;;;4.20;;
45434;SDS011;31183;47.404;8.500;2023-05-07T04:24:06;5.53;;;4.40;;
45434;SDS011;31183;47.404;8.500;2023-05-07T04:26:33;7.13;;;4.25;;
45434;SDS011;31183;47.404;8.500;2023-05-07T04:29:00;4.05;;;3.70;;
45434;SDS011;31183;47.404;8.500;2023-05-07T04:31:26;5.35;;;4.40;;
45434;SDS011;31183;47.404;8.500;2023-05-07T04:33:53;5.43;;;4.10;;
45434;SDS011;31183;47.404;8.500;2023-05-07T04:36:19;6.57;;;3.97;;
45434;SDS011;31183;47.404;8.500;2023-05-07T04:38:46;6.15;;;3.70;;
45434;SDS011;31183;47.404;8.500;2023-05-07T04:41:12;4.80;;;4.38;;
45434;SDS011;31183;47.404;8.500;2023-05-07T04:43:39;4.82;;;4.20;;
45434;SDS011;31183;47.404;8.500;2023-05-07T04:46:06;6.22;;;5.43;;
45434;SDS011;31183;47.404;8.500;2023-05-07T04:48:32;4.63;;;3.78;;
45434;SDS011;31183;47.404;8.500;2023-05-07T04:50:59;4.30;;;3.70;;
45434;SDS011;31183;47.404;8.500;2023-05-07T04:53:26;5.00;;;3.70;;
45434;SDS011;31183;47.404;8.500;2023-05-07T04:55:55;5.07;;;4.00;;
45434;SDS011;31183;47.404;8.500;2023-05-07T04:58:23;3.92;;;3.60;;
45434;SDS011;31183;47.404;8.500;2023-05-07T05:00:50;4.18;;;3.65;;
45434;SDS011;31183;47.404;8.500;2023-05-07T05:03:17;4.38;;;3.83;;
45434;SDS011;31183;47.404;8.500;2023-05-07T05:05:43;5.40;;;4.45;;
45434;SDS011;31183;47.404;8.500;2023-05-07T05:08:10;4.80;;;4.28;;
45434;SDS011;31183;47.404;8.500;2023-05-07T05:10:37;4.75;;;4.32;;
45434;SDS011;31183;47.404;8.500;2023-05-07T05:13:03;7.60;;;3.97;;
45434;SDS011;31183;47.404;8.500;2023-05-07T05:15:30;5.82;;;4.10;;
45434;SDS011;31183;47.404;8.500;2023-05-07T05:17:59;6.95;;;4.88;;
45434;SDS011;31183;47.404;8.500;2023-05-07T05:20:25;6.25;;;4.68;;
45434;SDS011;31183;47.404;8.500;2023-05-07T05:22:52;6.40;;;3.60;;
45434;SDS011;31183;47.404;8.500;2023-05-07T05:25:18;4.82;;;4.43;;
45434;SDS011;31183;47.404;8.500;2023-05-07T05:27:45;8.10;;;4.28;;
45434;SDS011;31183;47.404;8.500;2023-05-07T05:30:12;4.72;;;4.32;;
45434;SDS011;31183;47.404;8.500;2023-05-07T05:32:39;4.53;;;4.13;;
45434;SDS011;31183;47.404;8.500;2023-05-07T05:35:06;5.32;;;4.82;;
45434;SDS011;31183;47.404;8.500;2023-05-07T05:37:33;7.45;;;5.15;;
45434;SDS011;31183;47.404;8.500;2023-05-07T05:40:00;4.88;;;4.00;;
45434;SDS011;31183;47.404;8.500;2023-05-07T05:42:26;5.60;;;5.00;;
45434;SDS011;31183;47.404;8.500;2023-05-07T05:44:53;5.20;;;4.20;;
45434;SDS011;31183;47.404;8.500;2023-05-07T05:47:19;6.78;;;4.68;;
45434;SDS011;31183;47.404;8.500;2023-05-07T05:49:46;5.15;;;4.00;;
45434;SDS011;31183;47.404;8.500;2023-05-07T05:52:12;5.63;;;4.53;;
45434;SDS011;31183;47.404;8.500;2023-05-07T05:54:40;5.30;;;3.88;;
45434;SDS011;31183;47.404;8.500;2023-05-07T05:57:06;5.20;;;3.85;;
45434;SDS011;31183;47.404;8.500;2023-05-07T05:59:33;5.95;;;4.38;;
45434;SDS011;31183;47.404;8.500;2023-05-07T06:02:00;4.20;;;3.80;;
45434;SDS011;31183;47.404;8.500;2023-05-07T06:04:26;4.90;;;4.50;;
45434;SDS011;31183;47.404;8.500;2023-05-07T06:06:53;6.65;;;4.18;;
45434;SDS011;31183;47.404;8.500;2023-05-07T06:09:20;5.13;;;4.30;;
45434;SDS011;31183;47.404;8.500;2023-05-07T06:11:47;4.20;;;3.70;;
45434;SDS011;31183;47.404;8.500;2023-05-07T06:14:13;4.47;;;4.07;;
45434;SDS011;31183;47.404;8.500;2023-05-07T06:16:40;7.95;;;3.65;;
45434;SDS011;31183;47.404;8.500;2023-05-07T06:19:08;4.50;;;4.10;;
45434;SDS011;31183;47.404;8.500;2023-05-07T06:21:34;7.65;;;4.93;;
45434;SDS011;31183;47.404;8.500;2023-05-07T06:24:01;4.93;;;3.80;;
45434;SDS011;31183;47.404;8.500;2023-05-07T06:26:27;4.18;;;3.78;;
45434;SDS011;31183;47.404;8.500;2023-05-07T06:28:54;5.20;;;4.28;;
45434;SDS011;31183;47.404;8.500;2023-05-07T06:31:20;6.50;;;5.07;;
45434;SDS011;31183;47.404;8.500;2023-05-07T06:33:47;5.38;;;4.63;;
45434;SDS011;31183;47.404;8.500;2023-05-07T06:36:15;6.75;;;4.88;;
45434;SDS011;31183;47.404;8.500;2023-05-07T06:38:41;7.72;;;4.72;;
45434;SDS011;31183;47.404;8.500;2023-05-07T06:41:08;6.57;;;4.95;;
45434;SDS011;31183;47.404;8.500;2023-05-07T06:43:35;7.28;;;4.82;;
45434;SDS011;31183;47.404;8.500;2023-05-07T06:46:02;4.90;;;4.38;;
45434;SDS011;31183;47.404;8.500;2023-05-07T06:48:28;5.35;;;4.80;;
45434;SDS011;31183;47.404;8.500;2023-05-07T06:50:55;6.20;;;5.30;;
45434;SDS011;31183;47.404;8.500;2023-05-07T06:53:23;6.15;;;5.45;;
45434;SDS011;31183;47.404;8.500;2023-05-07T06:55:50;6.35;;;5.72;;
45434;SDS011;31183;47.404;8.500;2023-05-07T06:58:18;6.03;;;5.30;;
45434;SDS011;31183;47.404;8.500;2023-05-07T07:00:44;7.07;;;5.28;;
45434;SDS011;31183;47.404;8.500;2023-05-07T07:03:11;4.70;;;4.30;;
45434;SDS011;31183;47.404;8.500;2023-05-07T07:05:40;6.93;;;4.90;;
45434;SDS011;31183;47.404;8.500;2023-05-07T07:08:07;6.25;;;4.63;;
45434;SDS011;31183;47.404;8.500;2023-05-07T07:10:33;5.82;;;4.55;;
45434;SDS011;31183;47.404;8.500;2023-05-07T07:13:00;7.50;;;4.60;;
45434;SDS011;31183;47.404;8.500;2023-05-07T07:15:26;5.20;;;4.25;;
45434;SDS011;31183;47.404;8.500;2023-05-07T07:17:53;6.03;;;4.65;;
45434;SDS011;31183;47.404;8.500;2023-05-07T07:20:20;7.22;;;4.68;;
45434;SDS011;31183;47.404;8.500;2023-05-07T07:22:46;5.80;;;3.65;;
45434;SDS011;31183;47.404;8.500;2023-05-07T07:25:13;4.53;;;3.78;;
45434;SDS011;31183;47.404;8.500;2023-05-07T07:27:39;5.90;;;3.30;;
45434;SDS011;31183;47.404;8.500;2023-05-07T07:30:06;4.35;;;3.17;;
45434;SDS011;31183;47.404;8.500;2023-05-07T07:32:34;4.20;;;2.47;;
45434;SDS011;31183;47.404;8.500;2023-05-07T07:35:01;2.70;;;2.40;;
45434;SDS011;31183;47.404;8.500;2023-05-07T07:37:28;3.67;;;2.70;;
45434;SDS011;31183;47.404;8.500;2023-05-07T07:39:55;4.93;;;2.70;;
45434;SDS011;31183;47.404;8.500;2023-05-07T07:42:22;3.70;;;3.25;;
45434;SDS011;31183;47.404;8.500;2023-05-07T07:44:48;5.57;;;3.10;;
45434;SDS011;31183;47.404;8.500;2023-05-07T07:47:15;4.25;;;2.70;;
45434;SDS011;31183;47.404;8.500;2023-05-07T07:49:42;5.28;;;3.38;;
45434;SDS011;31183;47.404;8.500;2023-05-07T07:52:08;3.75;;;3.10;;
45434;SDS011;31183;47.404;8.500;2023-05-07T07:54:35;4.57;;;2.80;;
45434;SDS011;31183;47.404;8.500;2023-05-07T07:57:02;3.38;;;2.42;;
45434;SDS011;31183;47.404;8.500;2023-05-07T07:59:28;3.78;;;2.70;;
45434;SDS011;31183;47.404;8.500;2023-05-07T08:01:55;3.78;;;2.90;;
45434;SDS011;31183;47.404;8.500;2023-05-07T08:04:23;8.25;;;2.95;;
45434;SDS011;31183;47.404;8.500;2023-05-07T08:06:49;8.65;;;5.03;;
45434;SDS011;31183;47.404;8.500;2023-05-07T08:09:16;5.28;;;3.42;;
45434;SDS011;31183;47.404;8.500;2023-05-07T08:11:43;4.40;;;3.28;;
45434;SDS011;31183;47.404;8.500;2023-05-07T08:14:09;5.75;;;3.40;;
45434;SDS011;31183;47.404;8.500;2023-05-07T08:16:36;4.10;;;2.80;;
45434;SDS011;31183;47.404;8.500;2023-05-07T08:19:02;7.15;;;3.50;;
45434;SDS011;31183;47.404;8.500;2023-05-07T08:21:29;3.33;;;2.92;;
45434;SDS011;31183;47.404;8.500;2023-05-07T08:23:59;4.88;;;2.78;;
45434;SDS011;31183;47.404;8.500;2023-05-07T08:26:26;3.30;;;3.00;;
45434;SDS011;31183;47.404;8.500;2023-05-07T08:28:52;4.05;;;2.72;;
45434;SDS011;31183;47.404;8.500;2023-05-07T08:31:19;5.70;;;2.65;;
45434;SDS011;31183;47.404;8.500;2023-05-07T08:33:46;4.85;;;2.90;;
45434;SDS011;31183;47.404;8.500;2023-05-07T08:36:13;3.13;;;2.42;;
45434;SDS011;31183;47.404;8.500;2023-05-07T08:38:39;4.03;;;2.90;;
45434;SDS011;31183;47.404;8.500;2023-05-07T08:41:09;6.55;;;2.75;;
45434;SDS011;31183;47.404;8.500;2023-05-07T08:43:36;2.95;;;2.63;;
45434;SDS011;31183;47.404;8.500;2023-05-07T08:46:06;3.58;;;2.30;;
45434;SDS011;31183;47.404;8.500;2023-05-07T08:48:36;5.27;;;2.57;;
45434;SDS011;31183;47.404;8.500;2023-05-07T08:51:03;3.75;;;2.85;;
45434;SDS011;31183;47.404;8.500;2023-05-07T08:53:30;9.95;;;2.78;;
45434;SDS011;31183;47.404;8.500;2023-05-07T08:55:57;4.00;;;2.35;;
45434;SDS011;31183;47.404;8.500;2023-05-07T08:58:24;3.65;;;2.42;;
45434;SDS011;31183;47.404;8.500;2023-05-07T09:00:51;5.55;;;2.70;;
45434;SDS011;31183;47.404;8.500;2023-05-07T09:03:19;3.58;;;2.95;;
45434;SDS011;31183;47.404;8.500;2023-05-07T09:05:46;5.50;;;3.25;;
45434;SDS011;31183;47.404;8.500;2023-05-07T09:08:14;3.17;;;2.88;;
45434;SDS011;31183;47.404;8.500;2023-05-07T09:10:42;3.85;;;3.13;;
45434;SDS011;31183;47.404;8.500;2023-05-07T09:13:08;9.70;;;3.20;;
45434;SDS011;31183;47.404;8.500;2023-05-07T09:15:39;3.60;;;2.80;;
45434;SDS011;31183;47.404;8.500;2023-05-07T09:18:05;2.70;;;2.50;;
45434;SDS011;31183;47.404;8.500;2023-05-07T09:20:32;4.90;;;3.70;;
45434;SDS011;31183;47.404;8.500;2023-05-07T09:22:59;4.70;;;3.65;;
45434;SDS011;31183;47.404;8.500;2023-05-07T09:25:29;4.70;;;3.15;;
45434;SDS011;31183;47.404;8.500;2023-05-07T09:27:57;5.85;;;3.72;;
45434;SDS011;31183;47.404;8.500;2023-05-07T09:30:31;3.40;;;3.10;;
45434;SDS011;31183;47.404;8.500;2023-05-07T09:32:58;3.80;;;3.42;;
45434;SDS011;31183;47.404;8.500;2023-05-07T09:35:26;3.08;;;2.88;;
45434;SDS011;31183;47.404;8.500;2023-05-07T09:37:53;3.83;;;2.92;;
45434;SDS011;31183;47.404;8.500;2023-05-07T09:40:22;5.35;;;3.03;;
45434;SDS011;31183;47.404;8.500;2023-05-07T09:42:51;5.53;;;3.58;;
45434;SDS011;31183;47.404;8.500;2023-05-07T09:45:27;4.28;;;3.75;;
45434;SDS011;31183;47.404;8.500;2023-05-07T09:47:55;5.70;;;3.22;;
45434;SDS011;31183;47.404;8.500;2023-05-07T09:50:27;3.13;;;2.83;;
45434;SDS011;31183;47.404;8.500;2023-05-07T09:52:55;5.05;;;3.97;;
45434;SDS011;31183;47.404;8.500;2023-05-07T09:55:22;3.80;;;3.50;;
45434;SDS011;31183;47.404;8.500;2023-05-07T09:57:50;4.65;;;3.22;;
45434;SDS011;31183;47.404;8.500;2023-05-07T10:00:18;5.72;;;4.15;;
45434;SDS011;31183;47.404;8.500;2023-05-07T10:02:51;4.10;;;3.28;;
45434;SDS011;31183;47.404;8.500;2023-05-07T10:05:19;4.03;;;3.60;;
45434;SDS011;31183;47.404;8.500;2023-05-07T10:07:49;5.80;;;3.13;;
45434;SDS011;31183;47.404;8.500;2023-05-07T10:10:17;6.13;;;3.03;;
45434;SDS011;31183;47.404;8.500;2023-05-07T10:12:43;4.82;;;3.72;;
45434;SDS011;31183;47.404;8.500;2023-05-07T10:15:11;5.90;;;3.80;;
45434;SDS011;31183;47.404;8.500;2023-05-07T10:17:39;7.38;;;3.90;;
45434;SDS011;31183;47.404;8.500;2023-05-07T10:20:07;5.88;;;3.58;;
45434;SDS011;31183;47.404;8.500;2023-05-07T10:22:37;4.10;;;3.50;;
45434;SDS011;31183;47.404;8.500;2023-05-07T10:25:09;4.32;;;3.88;;
45434;SDS011;31183;47.404;8.500;2023-05-07T10:27:43;4.65;;;3.60;;
45434;SDS011;31183;47.404;8.500;2023-05-07T10:33:10;4.00;;;3.35;;
45434;SDS011;31183;47.404;8.500;2023-05-07T10:35:40;4.03;;;3.58;;
45434;SDS011;31183;47.404;8.500;2023-05-07T10:38:08;3.88;;;3.30;;
45434;SDS011;31183;47.404;8.500;2023-05-07T10:40:35;4.72;;;4.20;;
45434;SDS011;31183;47.404;8.500;2023-05-07T10:43:03;5.05;;;3.83;;
45434;SDS011;31183;47.404;8.500;2023-05-07T10:45:34;6.20;;;3.58;;
45434;SDS011;31183;47.404;8.500;2023-05-07T10:48:16;7.47;;;3.60;;
45434;SDS011;31183;47.404;8.500;2023-05-07T10:51:17;4.15;;;3.17;;
45434;SDS011;31183;47.404;8.500;2023-05-07T10:58:45;4.95;;;3.28;;
45434;SDS011;31183;47.404;8.500;2023-05-07T11:01:11;5.55;;;3.05;;
45434;SDS011;31183;47.404;8.500;2023-05-07T11:04:12;5.57;;;3.10;;
45434;SDS011;31183;47.404;8.500;2023-05-07T11:06:41;4.63;;;4.13;;
45434;SDS011;31183;47.404;8.500;2023-05-07T11:09:53;4.72;;;3.65;;
45434;SDS011;31183;47.404;8.500;2023-05-07T11:15:06;3.55;;;3.05;;
45434;SDS011;31183;47.404;8.500;2023-05-07T11:17:35;3.92;;;3.53;;
45434;SDS011;31183;47.404;8.500;2023-05-07T11:26:06;3.97;;;3.58;;
45434;SDS011;31183;47.404;8.500;2023-05-07T11:28:38;6.45;;;3.70;;
45434;SDS011;31183;47.404;8.500;2023-05-07T11:31:05;4.78;;;4.10;;
45434;SDS011;31183;47.404;8.500;2023-05-07T11:33:33;6.65;;;3.95;;
45434;SDS011;31183;47.404;8.500;2023-05-07T11:36:04;6.88;;;4.63;;
45434;SDS011;31183;47.404;8.500;2023-05-07T11:38:34;5.38;;;4.88;;
45434;SDS011;31183;47.404;8.500;2023-05-07T11:43:31;8.65;;;4.15;;
45434;SDS011;31183;47.404;8.500;2023-05-07T11:46:08;5.65;;;4.30;;
45434;SDS011;31183;47.404;8.500;2023-05-07T11:48:36;4.20;;;3.80;;
45434;SDS011;31183;47.404;8.500;2023-05-07T11:51:06;4.70;;;3.97;;
45434;SDS011;31183;47.404;8.500;2023-05-07T11:53:42;4.78;;;3.92;;
45434;SDS011;31183;47.404;8.500;2023-05-07T11:56:09;5.55;;;4.30;;
45434;SDS011;31183;47.404;8.500;2023-05-07T11:58:37;4.45;;;4.05;;
45434;SDS011;31183;47.404;8.500;2023-05-07T12:01:06;5.53;;;3.90;;
45434;SDS011;31183;47.404;8.500;2023-05-07T12:03:35;5.90;;;4.45;;
45434;SDS011;31183;47.404;8.500;2023-05-07T12:06:08;5.57;;;3.53;;
45434;SDS011;31183;47.404;8.500;2023-05-07T12:08:36;4.40;;;4.00;;
45434;SDS011;31183;47.404;8.500;2023-05-07T12:11:06;5.50;;;3.33;;
45434;SDS011;31183;47.404;8.500;2023-05-07T12:16:01;4.38;;;3.55;;
45434;SDS011;31183;47.404;8.500;2023-05-07T12:18:32;5.38;;;3.97;;
45434;SDS011;31183;47.404;8.500;2023-05-07T12:21:00;25.33;;;11.27;;
45434;SDS011;31183;47.404;8.500;2023-05-07T12:23:27;5.50;;;3.78;;
45434;SDS011;31183;47.404;8.500;2023-05-07T12:25:55;4.07;;;3.63;;
45434;SDS011;31183;47.404;8.500;2023-05-07T12:28:21;8.73;;;4.15;;
45434;SDS011;31183;47.404;8.500;2023-05-07T12:30:49;5.07;;;4.22;;
45434;SDS011;31183;47.404;8.500;2023-05-07T12:33:18;7.03;;;4.38;;
45434;SDS011;31183;47.404;8.500;2023-05-07T12:35:49;6.72;;;3.80;;
45434;SDS011;31183;47.404;8.500;2023-05-07T12:38:17;5.05;;;4.15;;
45434;SDS011;31183;47.404;8.500;2023-05-07T12:40:45;7.50;;;3.90;;
45434;SDS011;31183;47.404;8.500;2023-05-07T12:45:56;3.60;;;3.30;;
45434;SDS011;31183;47.404;8.500;2023-05-07T12:48:25;5.63;;;3.80;;
45434;SDS011;31183;47.404;8.500;2023-05-07T12:50:53;4.22;;;3.45;;
45434;SDS011;31183;47.404;8.500;2023-05-07T12:53:21;8.23;;;4.03;;
45434;SDS011;31183;47.404;8.500;2023-05-07T12:55:49;3.95;;;3.60;;
45434;SDS011;31183;47.404;8.500;2023-05-07T12:58:18;5.03;;;3.75;;
45434;SDS011;31183;47.404;8.500;2023-05-07T13:00:47;4.65;;;4.25;;
45434;SDS011;31183;47.404;8.500;2023-05-07T13:03:20;4.70;;;4.30;;
45434;SDS011;31183;47.404;8.500;2023-05-07T13:05:49;7.82;;;4.40;;
45434;SDS011;31183;47.404;8.500;2023-05-07T13:08:24;6.68;;;4.72;;
45434;SDS011;31183;47.404;8.500;2023-05-07T13:10:51;6.63;;;4.50;;
45434;SDS011;31183;47.404;8.500;2023-05-07T13:13:18;6.95;;;4.18;;
45434;SDS011;31183;47.404;8.500;2023-05-07T13:15:47;5.97;;;4.22;;
45434;SDS011;31183;47.404;8.500;2023-05-07T13:18:14;6.00;;;4.15;;
45434;SDS011;31183;47.404;8.500;2023-05-07T13:20:41;5.03;;;3.70;;
45434;SDS011;31183;47.404;8.500;2023-05-07T13:23:07;6.68;;;3.35;;
45434;SDS011;31183;47.404;8.500;2023-05-07T13:25:34;4.28;;;3.88;;
45434;SDS011;31183;47.404;8.500;2023-05-07T13:28:03;3.72;;;3.38;;
45434;SDS011;31183;47.404;8.500;2023-05-07T13:30:36;4.28;;;3.25;;
45434;SDS011;31183;47.404;8.500;2023-05-07T13:33:03;4.57;;;3.58;;
45434;SDS011;31183;47.404;8.500;2023-05-07T13:35:30;4.40;;;3.60;;
45434;SDS011;31183;47.404;8.500;2023-05-07T13:37:56;4.05;;;3.60;;
45434;SDS011;31183;47.404;8.500;2023-05-07T13:40:23;7.00;;;3.33;;
45434;SDS011;31183;47.404;8.500;2023-05-07T13:42:50;4.05;;;3.25;;
45434;SDS011;31183;47.404;8.500;2023-05-07T13:45:19;3.67;;;3.38;;
45434;SDS011;31183;47.404;8.500;2023-05-07T13:47:46;5.70;;;3.03;;
45434;SDS011;31183;47.404;8.500;2023-05-07T13:50:15;7.22;;;3.58;;
45434;SDS011;31183;47.404;8.500;2023-05-07T13:52:42;3.78;;;2.75;;
45434;SDS011;31183;47.404;8.500;2023-05-07T13:55:12;5.50;;;3.50;;
45434;SDS011;31183;47.404;8.500;2023-05-07T13:57:38;4.35;;;3.30;;
45434;SDS011;31183;47.404;8.500;2023-05-07T14:00:05;4.50;;;3.30;;
45434;SDS011;31183;47.404;8.500;2023-05-07T14:02:32;3.72;;;3.25;;
45434;SDS011;31183;47.404;8.500;2023-05-07T14:04:59;13.02;;;4.10;;
45434;SDS011;31183;47.404;8.500;2023-05-07T14:07:26;5.57;;;3.17;;
45434;SDS011;31183;47.404;8.500;2023-05-07T14:09:52;3.05;;;2.70;;
45434;SDS011;31183;47.404;8.500;2023-05-07T14:12:19;3.58;;;2.50;;
45434;SDS011;31183;47.404;8.500;2023-05-07T14:14:46;8.25;;;2.97;;
45434;SDS011;31183;47.404;8.500;2023-05-07T14:17:13;2.75;;;2.28;;
45434;SDS011;31183;47.404;8.500;2023-05-07T14:19:39;4.85;;;2.55;;
45434;SDS011;31183;47.404;8.500;2023-05-07T14:22:06;3.08;;;2.63;;
45434;SDS011;31183;47.404;8.500;2023-05-07T14:24:32;4.55;;;2.97;;
45434;SDS011;31183;47.404;8.500;2023-05-07T14:27:04;3.10;;;2.50;;
45434;SDS011;31183;47.404;8.500;2023-05-07T14:29:31;3.42;;;2.60;;
45434;SDS011;31183;47.404;8.500;2023-05-07T14:31:58;3.55;;;2.28;;
45434;SDS011;31183;47.404;8.500;2023-05-07T14:34:25;2.33;;;2.13;;
45434;SDS011;31183;47.404;8.500;2023-05-07T14:36:51;2.75;;;2.40;;
45434;SDS011;31183;47.404;8.500;2023-05-07T14:39:18;2.63;;;2.00;;
45434;SDS011;31183;47.404;8.500;2023-05-07T14:41:44;2.15;;;1.90;;
45434;SDS011;31183;47.404;8.500;2023-05-07T14:44:11;3.30;;;2.30;;
45434;SDS011;31183;47.404;8.500;2023-05-07T14:46:38;2.13;;;1.85;;
45434;SDS011;31183;47.404;8.500;2023-05-07T14:49:05;3.83;;;2.85;;
45434;SDS011;31183;47.404;8.500;2023-05-07T14:51:32;3.58;;;2.53;;
45434;SDS011;31183;47.404;8.500;2023-05-07T14:53:59;2.65;;;2.45;;
45434;SDS011;31183;47.404;8.500;2023-05-07T14:56:27;2.45;;;2.00;;
45434;SDS011;31183;47.404;8.500;2023-05-07T14:58:53;4.47;;;3.22;;
45434;SDS011;31183;47.404;8.500;2023-05-07T15:01:20;3.42;;;2.17;;
45434;SDS011;31183;47.404;8.500;2023-05-07T15:03:47;3.08;;;2.55;;
45434;SDS011;31183;47.404;8.500;2023-05-07T15:06:14;3.42;;;3.13;;
45434;SDS011;31183;47.404;8.500;2023-05-07T15:08:40;8.40;;;2.53;;
45434;SDS011;31183;47.404;8.500;2023-05-07T15:11:07;3.47;;;2.40;;
45434;SDS011;31183;47.404;8.500;2023-05-07T15:13:34;4.88;;;2.28;;
45434;SDS011;31183;47.404;8.500;2023-05-07T15:16:00;2.65;;;2.13;;
45434;SDS011;31183;47.404;8.500;2023-05-07T15:18:27;4.65;;;2.42;;